Time;durP1;ratioP1;P1;durP2;ratioP2;P2;SDS_P1;SDS_P2;PMS_P1;PMS_P2;Temp;Humidity;BMP_temperature;BMP_pressure;BME280_temperature;BME280_humidity;BME280_pressure;Samples;Min_cycle;Max_cycle;Signal;HPM_P1;HPM_P2
2023/12/18 00:00:31;;;;;;;19.85;11.85;;;;;;;5.86;100.00;101139.11;1717178;81;27102;-63
2023/12/18 00:02:59;;;;;;;19.57;12.03;;;;;;;5.86;100.00;101136.42;1718092;80;25789;-62
2023/12/18 00:05:26;;;;;;;20.52;12.45;;;;;;;5.87;100.00;101141.51;1720401;81;25709;-62
2023/12/18 00:07:53;;;;;;;57.78;32.98;;;;;;;5.89;100.00;101139.40;1721813;80;26590;-65
2023/12/18 00:10:20;;;;;;;25.52;14.15;;;;;;;5.93;100.00;101122.23;1718913;81;25437;-64
2023/12/18 00:12:47;;;;;;;52.90;32.73;;;;;;;5.96;100.00;101129.81;1688970;82;28143;-60
2023/12/18 00:15:14;;;;;;;24.47;14.38;;;;;;;5.98;100.00;101131.16;1680157;84;25907;-63
2023/12/18 00:17:41;;;;;;;19.70;12.50;;;;;;;6.01;100.00;101137.08;1683175;84;25737;-63
2023/12/18 00:20:10;;;;;;;21.05;12.63;;;;;;;6.01;100.00;101115.59;1727173;82;26337;-62
2023/12/18 00:22:36;;;;;;;19.77;12.25;;;;;;;6.00;100.00;101114.80;1708215;80;25520;-62
2023/12/18 00:25:05;;;;;;;19.50;12.35;;;;;;;6.00;100.00;101117.48;1724628;81;27771;-60
2023/12/18 00:27:32;;;;;;;22.07;12.10;;;;;;;6.00;100.00;101111.31;1718120;82;25923;-61
2023/12/18 00:29:59;;;;;;;21.82;12.58;;;;;;;5.99;100.00;101113.16;1711474;82;25805;-61
2023/12/18 00:32:26;;;;;;;21.68;13.03;;;;;;;6.00;99.99;101117.48;1709219;82;26001;-59
2023/12/18 00:34:53;;;;;;;22.20;13.62;;;;;;;6.00;99.99;101114.80;1683344;82;25493;-60
2023/12/18 00:37:20;;;;;;;20.10;13.08;;;;;;;6.00;99.61;101121.51;1679256;84;27861;-61
2023/12/18 00:39:47;;;;;;;22.32;12.63;;;;;;;6.00;99.75;101144.34;1679605;84;26641;-61
2023/12/18 00:42:13;;;;;;;22.75;13.70;;;;;;;6.00;99.83;101107.28;1719795;82;25837;-61
2023/12/18 00:44:40;;;;;;;21.33;12.47;;;;;;;6.01;99.63;101102.16;1671438;83;25632;-62
2023/12/18 00:47:07;;;;;;;17.27;11.75;;;;;;;6.00;99.54;101097.87;1660253;83;26176;-61
2023/12/18 00:49:34;;;;;;;18.75;11.88;;;;;;;6.00;99.57;101098.68;1714226;82;27779;-60
2023/12/18 00:52:01;;;;;;;20.10;12.07;;;;;;;6.00;99.20;101101.91;1715750;82;25722;-62
2023/12/18 00:54:27;;;;;;;24.92;13.70;;;;;;;5.99;99.48;101098.39;1709062;82;25778;-62
2023/12/18 00:56:55;;;;;;;22.87;12.65;;;;;;;5.99;99.61;101094.36;1719361;82;26613;-63
2023/12/18 00:59:22;;;;;;;21.42;12.73;;;;;;;6.01;99.50;101094.11;1714692;82;25817;-63
2023/12/18 01:01:49;;;;;;;21.90;13.22;;;;;;;6.01;99.54;101084.20;1717824;82;27334;-62
2023/12/18 01:04:15;;;;;;;22.67;12.85;;;;;;;6.01;99.14;101091.42;1713764;82;25563;-62
2023/12/18 01:06:42;;;;;;;22.48;12.55;;;;;;;6.02;99.06;101087.69;1693422;82;26506;-62
2023/12/18 01:09:09;;;;;;;22.15;12.50;;;;;;;6.02;99.16;101082.31;1718731;82;25686;-62
2023/12/18 01:11:36;;;;;;;19.65;11.48;;;;;;;6.02;99.19;101096.54;1660928;84;25491;-63
2023/12/18 01:14:03;;;;;;;23.27;13.03;;;;;;;6.03;99.23;101098.68;1682458;84;28392;-62
2023/12/18 01:16:31;;;;;;;19.20;12.15;;;;;;;6.02;99.11;101090.37;1685645;83;25834;-62
2023/12/18 01:18:58;;;;;;;20.12;12.20;;;;;;;6.04;99.07;101100.31;1689517;82;25441;-63
2023/12/18 01:21:24;;;;;;;23.42;13.03;;;;;;;6.05;99.32;101104.63;1715227;82;26140;-64
2023/12/18 01:23:51;;;;;;;26.30;12.45;;;;;;;6.07;99.07;101099.80;1716933;82;25899;-64
2023/12/18 01:26:18;;;;;;;17.90;12.25;;;;;;;6.06;98.98;101089.60;1717898;82;27226;-64
2023/12/18 01:28:44;;;;;;;22.07;12.40;;;;;;;6.06;98.86;101094.97;1693303;82;25721;-64
2023/12/18 01:31:25;;;;;;;20.17;12.23;;;;;;;6.07;98.77;101087.17;1720776;82;26173;-63
2023/12/18 01:33:56;;;;;;;20.88;12.28;;;;;;;6.08;98.97;101088.80;1676714;82;25982;-61
2023/12/18 01:36:23;;;;;;;22.27;11.68;;;;;;;6.08;98.56;101084.77;1699674;83;25847;-63
2023/12/18 01:38:49;;;;;;;18.90;11.68;;;;;;;6.09;98.73;101093.63;1670007;84;28047;-63
2023/12/18 01:41:17;;;;;;;23.95;13.72;;;;;;;6.08;98.51;101096.86;1678259;83;26319;-63
2023/12/18 01:43:44;;;;;;;21.82;12.40;;;;;;;6.08;98.47;101088.80;1681169;84;25789;-63
2023/12/18 01:46:19;;;;;;;25.25;12.43;;;;;;;6.09;98.62;101093.09;1667271;84;26575;-63
2023/12/18 01:48:46;;;;;;;19.87;12.43;;;;;;;6.09;98.03;101093.09;1662671;84;25864;-62
2023/12/18 01:51:13;;;;;;;21.80;14.13;;;;;;;6.11;98.68;101094.17;1713543;82;27486;-63
2023/12/18 01:53:44;;;;;;;23.57;14.28;;;;;;;6.11;98.54;101091.48;1672213;84;25488;-62
2023/12/18 01:56:14;;;;;;;24.52;14.20;;;;;;;6.11;98.58;101089.62;1667205;84;25866;-62
2023/12/18 01:58:43;;;;;;;23.20;13.00;;;;;;;6.11;98.20;101085.60;1659496;84;25631;-63
2023/12/18 02:01:11;;;;;;;21.95;13.62;;;;;;;6.12;98.41;101087.75;1675416;83;25826;-64
2023/12/18 02:03:39;;;;;;;19.25;12.78;;;;;;;6.12;97.95;101089.89;1677848;84;28050;-63
2023/12/18 02:06:07;;;;;;;21.52;11.55;;;;;;;6.11;97.82;101081.58;1682077;84;25800;-63
2023/12/18 02:08:35;;;;;;;21.65;12.28;;;;;;;6.13;98.26;101089.34;1672092;84;25816;-63
2023/12/18 02:11:04;;;;;;;21.70;13.13;;;;;;;6.13;98.01;101075.91;1692299;83;26565;-64
2023/12/18 02:13:31;;;;;;;19.92;12.33;;;;;;;6.12;97.85;101079.14;1676666;83;25477;-63
2023/12/18 02:15:58;;;;;;;18.23;12.37;;;;;;;6.12;97.92;101078.34;1656501;84;27360;-63
2023/12/18 02:18:25;;;;;;;21.57;12.60;;;;;;;6.10;97.52;101087.20;1720055;82;25866;-61
2023/12/18 02:20:51;;;;;;;20.08;12.88;;;;;;;6.11;97.90;101076.20;1677053;84;25756;-63
2023/12/18 02:23:18;;;;;;;22.95;12.55;;;;;;;6.11;97.42;101069.48;1680757;84;25636;-62
2023/12/18 02:25:45;;;;;;;21.95;12.63;;;;;;;6.10;97.50;101067.06;1711738;82;25876;-63
2023/12/18 02:28:12;;;;;;;17.07;12.05;;;;;;;6.11;96.93;101071.34;1711629;82;28122;-64
2023/12/18 02:30:39;;;;;;;20.12;12.68;;;;;;;6.11;97.37;101071.34;1725213;82;25511;-63
2023/12/18 02:33:06;;;;;;;19.32;12.75;;;;;;;6.09;97.24;101063.55;1711587;82;25993;-62
2023/12/18 02:35:34;;;;;;;22.20;14.78;;;;;;;6.08;96.98;101060.59;1714965;82;26192;-63
2023/12/18 02:38:01;;;;;;;24.02;16.20;;;;;;;6.08;97.52;101065.97;1697311;82;25501;-63
2023/12/18 02:40:28;;;;;;;22.42;13.88;;;;;;;6.09;97.48;101062.20;1709439;82;27506;-63
2023/12/18 02:42:54;;;;;;;17.42;12.73;;;;;;;6.08;97.46;101065.97;1695603;82;25945;-63
2023/12/18 02:45:22;;;;;;;23.73;13.93;;;;;;;6.09;97.32;101072.14;1717030;82;25800;-62
2023/12/18 02:47:48;;;;;;;19.90;12.98;;;;;;;6.08;97.51;101066.48;1708778;82;25680;-65
2023/12/18 02:50:17;;;;;;;18.77;12.03;;;;;;;6.08;97.45;101066.48;1736103;82;25780;-64
2023/12/18 02:52:44;;;;;;;18.17;12.35;;;;;;;6.08;97.34;101073.20;1678937;84;27970;-64
2023/12/18 02:55:12;;;;;;;17.95;12.65;;;;;;;6.09;97.13;101066.77;1699789;82;25970;-64
2023/12/18 02:57:39;;;;;;;21.75;13.68;;;;;;;6.08;97.28;101071.86;1689650;83;25833;-64
2023/12/18 03:00:08;;;;;;;20.62;13.35;;;;;;;6.07;97.60;101080.45;1668532;84;25636;-64
2023/12/18 03:02:35;;;;;;;21.17;14.58;;;;;;;6.08;97.46;101079.91;1676196;84;25515;-64
2023/12/18 03:05:01;;;;;;;21.77;14.07;;;;;;;6.06;97.41;101086.08;1697238;82;27342;-63
2023/12/18 03:07:29;;;;;;;22.82;14.93;;;;;;;6.07;97.50;101080.45;1716133;81;25696;-63
2023/12/18 03:09:56;;;;;;;24.70;14.10;;;;;;;6.08;97.76;101081.26;1701865;81;25811;-64
2023/12/18 03:12:23;;;;;;;19.48;13.65;;;;;;;6.08;97.75;101083.43;1674621;84;26031;-64
2023/12/18 03:14:51;;;;;;;22.50;14.13;;;;;;;6.09;97.78;101081.00;1717483;82;25474;-64
2023/12/18 03:17:18;;;;;;;23.42;15.03;;;;;;;6.09;97.56;101076.17;1721622;81;27337;-63
2023/12/18 03:19:45;;;;;;;26.50;14.25;;;;;;;6.08;97.64;101082.09;1700465;82;25798;-64
2023/12/18 03:22:13;;;;;;;18.37;12.90;;;;;;;6.08;97.70;101084.77;1684273;82;25893;-63
2023/12/18 03:24:42;;;;;;;21.40;13.53;;;;;;;6.09;97.72;101083.69;1721879;81;26635;-64
2023/12/18 03:27:10;;;;;;;25.00;14.07;;;;;;;6.09;97.37;101089.60;1721819;80;25810;-64
2023/12/18 03:29:37;;;;;;;23.67;12.47;;;;;;;6.08;97.53;101087.45;1734004;80;27721;-62
2023/12/18 03:32:04;;;;;;;20.82;14.23;;;;;;;6.08;97.55;101083.94;1732950;81;25682;-63
2023/12/18 03:34:31;;;;;;;22.45;12.70;;;;;;;6.09;97.59;101078.86;1722930;82;25885;-65
2023/12/18 03:36:59;;;;;;;26.07;15.38;;;;;;;6.08;97.47;101078.57;1733056;81;26513;-64
2023/12/18 03:39:26;;;;;;;21.48;13.25;;;;;;;6.08;97.60;101070.52;1726797;81;25421;-64
2023/12/18 03:41:53;;;;;;;18.70;12.13;;;;;;;6.09;97.60;101074.83;1718742;81;28049;-64
2023/12/18 03:44:20;;;;;;;19.92;11.78;;;;;;;6.08;97.45;101079.40;1694447;82;25820;-64
2023/12/18 03:46:48;;;;;;;18.32;11.75;;;;;;;6.09;97.06;101080.20;1715226;81;25460;-64
2023/12/18 03:49:15;;;;;;;17.27;11.57;;;;;;;6.09;97.28;101090.95;1673232;84;25788;-65
2023/12/18 03:51:41;;;;;;;16.15;10.68;;;;;;;6.09;97.29;101099.00;1679405;83;25863;-63
2023/12/18 03:54:08;;;;;;;15.63;11.20;;;;;;;6.09;97.29;101084.23;1651464;84;28368;-62
2023/12/18 03:56:35;;;;;;;16.27;11.78;;;;;;;6.10;97.24;101093.91;1710598;82;25457;-64
2023/12/18 03:59:02;;;;;;;16.97;11.38;;;;;;;6.11;97.14;101092.83;1719552;82;25483;-64
2023/12/18 04:01:36;;;;;;;18.42;10.80;;;;;;;6.11;97.03;101085.60;1717987;81;25820;-64
2023/12/18 04:04:03;;;;;;;16.93;11.45;;;;;;;6.11;97.17;101086.95;1707155;80;25455;-63
2023/12/18 04:06:30;;;;;;;19.65;11.57;;;;;;;6.12;96.96;101079.69;1726450;80;27487;-65
2023/12/18 04:08:57;;;;;;;15.93;11.43;;;;;;;6.12;96.79;101083.17;1706111;82;25868;-64
2023/12/18 04:11:24;;;;;;;19.40;11.43;;;;;;;6.12;96.88;101073.77;1711553;82;25728;-63
2023/12/18 04:13:52;;;;;;;16.82;11.70;;;;;;;6.13;96.80;101074.06;1711574;82;26670;-62
2023/12/18 04:16:19;;;;;;;17.32;11.65;;;;;;;6.12;96.26;101076.45;1692198;83;25855;-63
2023/12/18 04:18:47;;;;;;;18.92;11.85;;;;;;;6.12;96.47;101071.63;1709618;81;27705;-63
2023/12/18 04:21:14;;;;;;;17.40;11.28;;;;;;;6.12;96.59;101071.09;1724104;81;26127;-64
2023/12/18 04:23:41;;;;;;;18.27;11.93;;;;;;;6.13;96.52;101066.52;1698984;82;25919;-62
2023/12/18 04:26:09;;;;;;;18.32;11.83;;;;;;;6.11;96.14;101065.97;1722344;81;26606;-64
2023/12/18 04:28:36;;;;;;;16.73;11.80;;;;;;;6.12;96.42;101073.77;1716878;81;25499;-64
2023/12/18 04:31:04;;;;;;;18.87;12.23;;;;;;;6.12;96.12;101071.09;1726102;81;27342;-64
2023/12/18 04:33:31;;;;;;;18.70;12.05;;;;;;;6.12;96.43;101069.74;1716570;82;26117;-64
2023/12/18 04:36:00;;;;;;;17.87;11.65;;;;;;;6.12;96.42;101072.43;1731433;81;25706;-63
2023/12/18 04:38:27;;;;;;;15.43;11.63;;;;;;;6.13;96.21;101075.91;1727283;80;25971;-64
2023/12/18 04:40:55;;;;;;;16.35;12.28;;;;;;;6.13;95.97;101085.31;1724605;81;25845;-64
2023/12/18 04:43:22;;;;;;;16.93;12.25;;;;;;;6.13;96.21;101078.60;1736158;80;27852;-63
2023/12/18 04:45:49;;;;;;;20.35;13.15;;;;;;;6.13;95.95;101071.88;1718020;80;25564;-64
2023/12/18 04:48:16;;;;;;;17.82;11.97;;;;;;;6.14;95.96;101072.17;1722157;81;25799;-64
2023/12/18 04:50:43;;;;;;;18.80;12.55;;;;;;;6.14;96.09;101074.86;1685057;83;25938;-64
2023/12/18 04:53:11;;;;;;;19.98;12.45;;;;;;;6.13;95.94;101079.43;1670517;84;25493;-63
2023/12/18 04:55:37;;;;;;;18.70;12.55;;;;;;;6.12;95.42;101074.31;1661839;84;27940;-64
2023/12/18 04:58:04;;;;;;;19.27;12.60;;;;;;;6.12;95.72;101083.72;1657666;84;25920;-64
2023/12/18 05:00:31;;;;;;;20.57;13.15;;;;;;;6.12;95.69;101081.83;1685443;83;25811;-64
2023/12/18 05:02:58;;;;;;;17.90;12.20;;;;;;;6.12;95.71;101085.86;1731045;81;26008;-64
2023/12/18 05:05:26;;;;;;;16.37;12.37;;;;;;;6.11;95.75;101082.92;1737937;80;25796;-64
2023/12/18 05:07:53;;;;;;;18.95;12.98;;;;;;;6.12;95.64;101087.75;1737489;81;27939;-64
2023/12/18 05:10:19;;;;;;;16.70;12.68;;;;;;;6.12;95.67;101079.69;1712372;81;25417;-64
2023/12/18 05:12:46;;;;;;;19.35;12.73;;;;;;;6.11;95.80;101082.09;1729865;81;26225;-64
2023/12/18 05:15:14;;;;;;;20.70;13.58;;;;;;;6.12;95.56;101077.00;1727606;80;25953;-63
2023/12/18 05:17:41;;;;;;;21.17;13.15;;;;;;;6.12;95.71;101082.38;1741766;81;25449;-64
2023/12/18 05:20:12;;;;;;;18.98;13.40;;;;;;;6.11;95.53;101079.40;1730246;81;28523;-62
2023/12/18 05:22:39;;;;;;;19.98;13.15;;;;;;;6.11;95.51;101079.40;1675967;84;26311;-64
2023/12/18 05:25:08;;;;;;;20.25;12.68;;;;;;;6.12;95.39;101062.23;1721208;81;25867;-63
2023/12/18 05:27:35;;;;;;;19.12;13.80;;;;;;;6.11;95.41;101066.80;1739483;80;26513;-62
2023/12/18 05:30:04;;;;;;;19.48;13.55;;;;;;;6.11;95.24;101063.28;1729778;81;25861;-63
2023/12/18 05:32:31;;;;;;;21.40;12.68;;;;;;;6.11;95.69;101072.69;1720523;81;27381;-63
2023/12/18 05:34:58;;;;;;;21.35;13.80;;;;;;;6.09;95.62;101057.37;1711683;82;25382;-63
2023/12/18 05:37:25;;;;;;;18.82;12.88;;;;;;;6.09;95.38;101059.52;1734014;80;26442;-64
2023/12/18 05:39:52;;;;;;;18.30;12.20;;;;;;;6.11;95.68;101068.66;1731069;81;26365;-63
2023/12/18 05:42:19;;;;;;;20.08;13.05;;;;;;;6.11;95.68;101067.31;1737669;82;25752;-64
2023/12/18 05:44:46;;;;;;;19.65;13.18;;;;;;;6.12;95.61;101077.00;1726885;81;28121;-64
2023/12/18 05:47:14;;;;;;;22.62;13.32;;;;;;;6.11;95.58;101064.63;1712872;82;25513;-64
2023/12/18 05:49:41;;;;;;;18.60;12.58;;;;;;;6.11;95.68;101068.66;1718867;83;25908;-64
2023/12/18 05:52:09;;;;;;;19.48;13.05;;;;;;;6.11;95.44;101072.69;1680739;84;26191;-64
2023/12/18 05:54:37;;;;;;;18.67;12.93;;;;;;;6.10;95.73;101071.09;1702550;83;25842;-63
2023/12/18 05:57:04;;;;;;;18.23;13.50;;;;;;;6.11;95.73;101077.55;1701049;83;27338;-64
2023/12/18 05:59:32;;;;;;;20.50;13.90;;;;;;;6.11;95.61;101072.69;1701470;82;26176;-64
2023/12/18 06:01:59;;;;;;;21.12;13.80;;;;;;;6.11;95.62;101081.58;1698167;82;25805;-64
2023/12/18 06:04:27;;;;;;;22.82;14.10;;;;;;;6.11;95.51;101081.58;1709341;81;25939;-64
2023/12/18 06:06:54;;;;;;;19.15;13.28;;;;;;;6.11;95.70;101082.09;1732948;82;25723;-63
2023/12/18 06:09:22;;;;;;;22.17;13.55;;;;;;;6.11;95.77;101079.40;1702539;82;27365;-63
2023/12/18 06:11:48;;;;;;;20.77;13.65;;;;;;;6.11;95.53;101086.95;1697020;82;25469;-62
2023/12/18 06:14:16;;;;;;;22.20;14.25;;;;;;;6.11;95.53;101094.17;1721904;82;25438;-63
2023/12/18 06:16:43;;;;;;;19.77;13.30;;;;;;;6.11;95.56;101084.77;1702273;81;26315;-63
2023/12/18 06:19:11;;;;;;;19.80;13.43;;;;;;;6.11;95.51;101099.55;1724166;82;25859;-64
2023/12/18 06:21:41;;;;;;;22.75;14.70;;;;;;;6.11;95.59;101115.66;1699148;83;27390;-64
2023/12/18 06:24:08;;;;;;;22.52;14.38;;;;;;;6.10;95.33;101088.55;1703294;83;25672;-63
2023/12/18 06:26:37;;;;;;;20.60;14.18;;;;;;;6.09;95.26;101117.27;1707635;82;25734;-63
2023/12/18 06:29:04;;;;;;;21.42;14.90;;;;;;;6.09;95.58;101113.23;1709145;82;25849;-63
2023/12/18 06:31:31;;;;;;;20.65;14.00;;;;;;;6.11;95.39;101110.30;1712067;82;25457;-63
2023/12/18 06:33:58;;;;;;;20.50;13.58;;;;;;;6.11;95.24;101112.47;1710017;82;27322;-63
2023/12/18 06:36:26;;;;;;;23.75;13.70;;;;;;;6.10;95.57;101122.13;1710030;83;26075;-63
2023/12/18 06:38:53;;;;;;;21.97;14.43;;;;;;;6.11;95.56;101127.23;1715267;81;25430;-63
2023/12/18 06:41:20;;;;;;;25.32;14.73;;;;;;;6.11;95.37;101123.72;1692166;81;25920;-64
2023/12/18 06:43:49;;;;;;;22.37;14.23;;;;;;;6.08;95.64;101108.95;1686261;83;25947;-63
2023/12/18 06:46:16;;;;;;;23.38;14.95;;;;;;;6.09;95.74;101117.80;1720534;82;27369;-63
2023/12/18 06:48:43;;;;;;;23.83;15.30;;;;;;;6.08;95.98;101118.86;1708936;82;25795;-64
2023/12/18 06:51:11;;;;;;;24.12;14.65;;;;;;;6.06;96.08;101112.94;1691023;83;25700;-64
2023/12/18 06:53:39;;;;;;;26.82;15.58;;;;;;;6.04;96.26;101113.74;1700063;82;25901;-62
2023/12/18 06:56:07;;;;;;;22.80;14.63;;;;;;;6.00;96.54;101124.73;1699233;83;25396;-64
2023/12/18 06:58:34;;;;;;;26.15;15.28;;;;;;;5.99;96.58;101113.16;1701337;83;27379;-63
2023/12/18 07:01:03;;;;;;;24.12;14.75;;;;;;;5.95;96.35;101116.88;1721312;82;25769;-63
2023/12/18 07:03:30;;;;;;;24.15;15.18;;;;;;;5.94;96.42;101123.84;1725065;82;25566;-62
2023/12/18 07:05:56;;;;;;;24.27;15.15;;;;;;;5.93;96.37;101123.58;1738102;81;25865;-62
2023/12/18 07:08:24;;;;;;;23.38;14.80;;;;;;;5.91;96.54;101119.80;1729726;81;25941;-62
2023/12/18 07:10:51;;;;;;;26.10;15.58;;;;;;;5.91;96.41;101110.95;1704342;82;27402;-63
2023/12/18 07:13:19;;;;;;;25.32;16.45;;;;;;;5.91;96.38;101110.41;1672578;84;25710;-62
2023/12/18 07:15:46;;;;;;;24.07;14.30;;;;;;;5.91;96.18;101109.61;1691623;82;25783;-61
2023/12/18 07:18:14;;;;;;;27.65;15.75;;;;;;;5.92;96.45;101112.55;1673596;84;26443;-61
2023/12/18 07:20:45;;;;;;;25.17;15.40;;;;;;;5.91;96.33;101115.78;1735614;81;25630;-61
2023/12/18 07:23:12;;;;;;;25.80;15.03;;;;;;;5.91;96.25;101102.36;1702595;82;28411;-61
2023/12/18 07:25:39;;;;;;;20.72;14.07;;;;;;;5.91;96.29;101103.70;1732004;80;25906;-60
2023/12/18 07:28:07;;;;;;;23.95;15.55;;;;;;;5.92;96.46;101090.53;1728911;81;25422;-59
2023/12/18 07:30:38;;;;;;;23.63;15.10;;;;;;;5.93;96.42;101112.84;1730745;80;26841;-58
2023/12/18 07:33:06;;;;;;;24.60;15.38;;;;;;;5.93;96.38;101119.55;1743012;81;25739;-58
2023/12/18 07:35:33;;;;;;;23.77;14.80;;;;;;;5.91;96.61;101127.06;1679409;83;28026;-61
2023/12/18 07:38:00;;;;;;;24.12;14.23;;;;;;;5.92;96.57;101129.46;1734265;80;25467;-62
2023/12/18 07:40:26;;;;;;;28.30;14.53;;;;;;;5.92;96.61;101128.13;1718830;80;25856;-64
2023/12/18 07:42:54;;;;;;;26.00;14.47;;;;;;;5.93;96.63;101124.92;1736272;81;25603;-63
2023/12/18 07:45:21;;;;;;;27.30;16.82;;;;;;;5.92;96.37;101140.75;1714856;81;25870;-63
2023/12/18 07:47:48;;;;;;;24.05;14.65;;;;;;;5.92;96.50;101131.34;1729935;80;27983;-64
2023/12/18 07:50:16;;;;;;;25.02;13.72;;;;;;;5.94;96.42;101138.61;1706495;81;25430;-63
2023/12/18 07:52:43;;;;;;;25.02;15.70;;;;;;;5.94;96.42;101129.20;1679197;83;25905;-63
2023/12/18 07:55:10;;;;;;;25.80;15.78;;;;;;;5.94;96.56;101133.23;1683915;84;25726;-63
2023/12/18 07:57:40;;;;;;;22.10;15.30;;;;;;;5.97;96.66;101138.13;1735920;80;25443;-62
2023/12/18 08:00:08;;;;;;;26.62;15.18;;;;;;;5.97;96.28;101132.22;1725654;81;27776;-62
2023/12/18 08:02:35;;;;;;;28.57;15.87;;;;;;;6.00;96.31;101140.31;1732130;81;26093;-63
2023/12/18 08:05:03;;;;;;;26.42;15.55;;;;;;;6.01;96.20;101130.36;1731620;81;25496;-64
2023/12/18 08:07:30;;;;;;;24.95;14.65;;;;;;;6.03;95.74;101128.22;1711359;80;26320;-62
2023/12/18 08:09:57;;;;;;;25.92;15.05;;;;;;;6.04;95.91;101126.62;1728864;80;25889;-63
2023/12/18 08:12:25;;;;;;;23.67;14.63;;;;;;;6.05;96.06;101137.66;1719936;81;27365;-64
2023/12/18 08:14:54;;;;;;;26.02;15.23;;;;;;;6.06;95.76;101150.55;1695034;83;25415;-63
2023/12/18 08:17:21;;;;;;;24.10;14.55;;;;;;;6.06;95.61;101144.66;1731472;81;25908;-64
2023/12/18 08:19:49;;;;;;;20.80;14.55;;;;;;;6.07;95.87;101132.03;1727952;82;26353;-64
2023/12/18 08:22:16;;;;;;;25.27;14.93;;;;;;;6.06;95.44;101118.31;1726778;82;25529;-64
2023/12/18 08:24:43;;;;;;;24.82;15.03;;;;;;;6.05;95.90;101128.80;1724068;81;28054;-64
2023/12/18 08:27:10;;;;;;;27.87;15.30;;;;;;;6.04;95.94;101135.23;1705595;82;25844;-64
2023/12/18 08:29:40;;;;;;;26.65;16.05;;;;;;;6.02;96.05;101122.05;1680682;84;25522;-64
2023/12/18 08:32:07;;;;;;;27.52;15.48;;;;;;;6.00;96.24;101120.16;1739421;80;25982;-63
2023/12/18 08:34:35;;;;;;;25.68;14.95;;;;;;;6.02;96.43;101122.05;1731796;81;25420;-64
2023/12/18 08:37:05;;;;;;;24.85;14.93;;;;;;;6.04;96.56;101131.20;1732062;80;28033;-64
2023/12/18 08:39:33;;;;;;;27.80;15.85;;;;;;;6.04;96.51;101128.52;1724905;80;25757;-64
2023/12/18 08:42:00;;;;;;;29.32;15.70;;;;;;;6.05;96.26;101136.86;1717186;82;25859;-65
2023/12/18 08:44:27;;;;;;;27.85;15.85;;;;;;;6.05;96.36;101136.31;1719305;82;26577;-64
2023/12/18 08:46:54;;;;;;;27.98;16.93;;;;;;;6.06;96.02;101127.20;1717940;82;25407;-63
2023/12/18 08:49:21;;;;;;;26.33;15.40;;;;;;;6.07;96.05;101128.80;1666980;84;27274;-63
2023/12/18 08:51:49;;;;;;;27.05;15.72;;;;;;;6.11;96.39;101130.44;1663160;84;25894;-63
2023/12/18 08:54:16;;;;;;;25.80;16.45;;;;;;;6.13;96.21;101121.58;1673876;84;25463;-62
2023/12/18 08:56:43;;;;;;;27.55;15.50;;;;;;;6.15;96.16;101119.47;1690496;83;26412;-65
2023/12/18 08:59:11;;;;;;;29.00;15.93;;;;;;;6.16;95.84;101123.24;1677609;84;25914;-63
2023/12/18 09:01:38;;;;;;;26.33;14.83;;;;;;;6.20;95.96;101125.39;1686263;84;28034;-63
2023/12/18 09:04:06;;;;;;;24.63;15.75;;;;;;;6.19;95.75;101111.70;1674223;84;25740;-65
2023/12/18 09:06:37;;;;;;;27.00;15.43;;;;;;;6.24;95.60;101119.24;1674488;84;25778;-64
2023/12/18 09:09:05;;;;;;;26.00;15.40;;;;;;;6.27;95.95;101119.27;1724385;81;26238;-64
2023/12/18 09:11:33;;;;;;;23.73;15.03;;;;;;;6.31;95.67;101121.70;1719569;81;25866;-63
2023/12/18 09:14:03;;;;;;;23.60;14.33;;;;;;;6.34;95.17;101120.64;1722635;81;27398;-65
2023/12/18 09:16:31;;;;;;;25.45;14.50;;;;;;;6.36;95.42;101130.59;1724229;81;25536;-64
2023/12/18 09:18:58;;;;;;;25.32;14.98;;;;;;;6.40;94.92;101121.48;1732006;80;25936;-64
2023/12/18 09:21:25;;;;;;;25.55;16.00;;;;;;;6.42;94.96;101123.39;1684684;84;26226;-63
2023/12/18 09:23:53;;;;;;;23.77;15.25;;;;;;;6.47;95.00;101110.49;1704182;82;25480;-65
2023/12/18 09:26:20;;;;;;;28.80;15.10;;;;;;;6.50;94.48;101114.01;1661570;84;28078;-63
2023/12/18 09:28:48;;;;;;;24.07;13.85;;;;;;;6.51;94.47;101108.37;1715588;80;25695;-64
2023/12/18 09:31:17;;;;;;;22.20;14.78;;;;;;;6.53;94.47;101120.21;1701639;82;25411;-64
2023/12/18 09:33:44;;;;;;;32.75;15.50;;;;;;;6.53;94.26;101121.55;1658612;84;26377;-65
2023/12/18 09:36:11;;;;;;;22.40;15.10;;;;;;;6.53;93.71;101116.18;1693613;82;25863;-63
2023/12/18 09:38:39;;;;;;;25.62;14.78;;;;;;;6.52;93.58;101114.04;1698008;81;27677;-65
2023/12/18 09:41:07;;;;;;;25.40;14.55;;;;;;;6.53;93.15;101121.55;1714973;82;26054;-70
2023/12/18 09:43:35;;;;;;;23.50;15.63;;;;;;;6.54;93.66;101107.06;1723310;82;25839;-66
2023/12/18 09:46:04;;;;;;;24.52;14.63;;;;;;;6.59;94.37;101108.94;1721228;82;26422;-64
2023/12/18 09:48:32;;;;;;;24.80;15.43;;;;;;;6.64;94.69;101107.10;1724625;82;25539;-63
2023/12/18 09:51:02;;;;;;;24.07;16.02;;;;;;;6.64;94.17;101096.86;1729115;82;28075;-69
2023/12/18 09:53:30;;;;;;;22.93;15.10;;;;;;;6.69;93.90;101099.57;1716548;82;25679;-68
2023/12/18 09:55:57;;;;;;;23.18;14.85;;;;;;;6.70;93.96;101107.38;1688318;84;25897;-68
2023/12/18 09:58:24;;;;;;;20.37;14.07;;;;;;;6.72;93.73;101114.67;1680051;84;25971;-69
2023/12/18 10:00:53;;;;;;;22.62;14.47;;;;;;;6.73;93.78;101097.99;1686597;83;25516;-70
2023/12/18 10:03:20;;;;;;;23.55;14.43;;;;;;;6.75;93.49;101093.16;1716923;80;27377;-67
2023/12/18 10:05:47;;;;;;;25.12;15.05;;;;;;;6.76;92.99;101100.67;1736170;81;25915;-68
2023/12/18 10:08:15;;;;;;;24.12;14.75;;;;;;;6.75;93.26;101097.19;1722259;80;25804;-67
2023/12/18 10:10:44;;;;;;;29.27;15.95;;;;;;;6.75;92.72;101090.47;1740272;80;25994;-68
2023/12/18 10:13:13;;;;;;;23.67;14.65;;;;;;;6.77;92.94;101099.62;1734416;80;25798;-67
2023/12/18 10:15:44;;;;;;;26.17;15.65;;;;;;;6.77;93.52;101100.96;1734883;81;27344;-68
2023/12/18 10:18:13;;;;;;;38.00;21.20;;;;;;;6.78;93.58;101103.94;1713950;82;25889;-68
2023/12/18 10:20:40;;;;;;;32.77;19.33;;;;;;;6.83;93.91;101112.02;1727142;81;26219;-70
2023/12/18 10:23:08;;;;;;;27.15;16.25;;;;;;;6.86;93.74;101116.84;1717654;81;26000;-68
2023/12/18 10:25:36;;;;;;;25.23;16.35;;;;;;;6.87;93.70;101100.45;1728090;81;25869;-68
2023/12/18 10:28:04;;;;;;;26.82;16.32;;;;;;;6.87;93.34;101099.11;1730765;81;27310;-69
2023/12/18 10:30:30;;;;;;;26.23;15.80;;;;;;;6.86;93.66;101103.40;1725613;80;25457;-69
2023/12/18 10:32:59;;;;;;;28.07;16.40;;;;;;;6.87;93.69;101104.48;1733943;81;25636;-69
2023/12/18 10:35:27;;;;;;;27.37;16.10;;;;;;;6.88;93.75;101107.45;1727034;81;25987;-69
2023/12/18 10:37:56;;;;;;;27.17;16.75;;;;;;;6.88;94.05;101106.11;1733195;80;25593;-69
2023/12/18 10:40:26;;;;;;;29.10;17.15;;;;;;;6.88;94.24;101116.07;1733536;80;28046;-69
2023/12/18 10:43:07;;;;;;;34.33;17.60;;;;;;;6.86;94.44;101107.44;1707346;80;25780;-68
2023/12/18 10:45:35;;;;;;;26.90;17.07;;;;;;;6.86;94.76;101106.92;1710526;81;25757;-69
2023/12/18 10:48:05;;;;;;;29.42;18.77;;;;;;;6.86;94.92;101107.44;1713604;83;25631;-67
2023/12/18 10:50:36;;;;;;;28.80;18.00;;;;;;;6.83;95.09;101104.75;1719576;82;25871;-68
2023/12/18 10:53:04;;;;;;;34.65;18.73;;;;;;;6.79;95.27;101104.19;1713165;82;28274;-67
2023/12/18 10:55:32;;;;;;;31.35;17.77;;;;;;;6.74;95.51;101091.52;1720390;82;26059;-68
2023/12/18 10:58:01;;;;;;;28.75;17.40;;;;;;;6.72;95.84;101101.74;1676059;84;25900;-68
2023/12/18 11:00:30;;;;;;;30.92;18.48;;;;;;;6.68;96.42;101088.56;1677284;84;25855;-67
2023/12/18 11:02:58;;;;;;;28.47;18.65;;;;;;;6.60;96.90;101088.52;1731138;82;25454;-66
2023/12/18 11:05:29;;;;;;;31.02;19.02;;;;;;;6.60;97.47;101098.47;1726271;82;27353;-67
2023/12/18 11:08:00;;;;;;;31.07;17.98;;;;;;;6.57;97.85;101100.34;1715079;82;25838;-66
2023/12/18 11:10:27;;;;;;;30.37;18.70;;;;;;;6.53;98.62;101102.20;1732880;82;25840;-66
2023/12/18 11:13:06;;;;;;;30.45;19.25;;;;;;;6.50;98.84;101107.29;1701002;81;26335;-65
2023/12/18 11:15:44;;;;;;;30.00;18.80;;;;;;;6.48;99.18;101087.94;1690712;84;25910;-66
2023/12/18 11:18:55;;;;;;;36.88;19.27;;;;;;;6.47;99.63;101092.51;1728453;81;27328;-66